sensor_id;sensor_type;location;lat;lon;timestamp;pressure;altitude;pressure_sealevel;temperature
63220;BMP180;49320;52.512;13.448;2023-04-15T00:00:58;100108.00;;;15.30
63220;BMP180;49320;52.512;13.448;2023-04-15T00:03:25;100103.00;;;15.30
63220;BMP180;49320;52.512;13.448;2023-04-15T00:05:53;100091.00;;;15.30
63220;BMP180;49320;52.512;13.448;2023-04-15T00:08:19;100088.00;;;15.30
63220;BMP180;49320;52.512;13.448;2023-04-15T00:10:46;100095.00;;;15.30
63220;BMP180;49320;52.512;13.448;2023-04-15T00:13:14;100094.00;;;15.30
63220;BMP180;49320;52.512;13.448;2023-04-15T00:15:41;100088.00;;;15.40
63220;BMP180;49320;52.512;13.448;2023-04-15T00:18:09;100091.00;;;15.40
63220;BMP180;49320;52.512;13.448;2023-04-15T00:20:36;100090.00;;;15.40
63220;BMP180;49320;52.512;13.448;2023-04-15T00:23:03;100087.00;;;15.40
63220;BMP180;49320;52.512;13.448;2023-04-15T00:25:30;100086.00;;;15.40
63220;BMP180;49320;52.512;13.448;2023-04-15T00:27:57;100077.00;;;15.40
63220;BMP180;49320;52.512;13.448;2023-04-15T00:30:24;100080.00;;;15.50
63220;BMP180;49320;52.512;13.448;2023-04-15T00:32:52;100077.00;;;15.50
63220;BMP180;49320;52.512;13.448;2023-04-15T00:35:19;100090.00;;;15.50
63220;BMP180;49320;52.512;13.448;2023-04-15T00:37:46;100088.00;;;15.50
63220;BMP180;49320;52.512;13.448;2023-04-15T00:40:16;100077.00;;;15.60
63220;BMP180;49320;52.512;13.448;2023-04-15T00:42:44;100087.00;;;15.60
63220;BMP180;49320;52.512;13.448;2023-04-15T00:45:11;100084.00;;;15.60
63220;BMP180;49320;52.512;13.448;2023-04-15T00:47:42;100078.00;;;15.60
63220;BMP180;49320;52.512;13.448;2023-04-15T00:50:10;100075.00;;;15.60
63220;BMP180;49320;52.512;13.448;2023-04-15T00:52:39;100078.00;;;15.60
63220;BMP180;49320;52.512;13.448;2023-04-15T00:55:07;100079.00;;;15.60
63220;BMP180;49320;52.512;13.448;2023-04-15T00:57:35;100081.00;;;15.60
63220;BMP180;49320;52.512;13.448;2023-04-15T01:00:03;100075.00;;;15.60
63220;BMP180;49320;52.512;13.448;2023-04-15T01:02:31;100075.00;;;15.60
63220;BMP180;49320;52.512;13.448;2023-04-15T01:04:59;100070.00;;;15.60
63220;BMP180;49320;52.512;13.448;2023-04-15T01:07:26;100060.00;;;15.60
63220;BMP180;49320;52.512;13.448;2023-04-15T01:09:53;100065.00;;;15.60
63220;BMP180;49320;52.512;13.448;2023-04-15T01:12:20;100065.00;;;15.60
63220;BMP180;49320;52.512;13.448;2023-04-15T01:14:47;100060.00;;;15.60
63220;BMP180;49320;52.512;13.448;2023-04-15T01:17:14;100063.00;;;15.60
63220;BMP180;49320;52.512;13.448;2023-04-15T01:19:41;100061.00;;;15.60
63220;BMP180;49320;52.512;13.448;2023-04-15T01:22:08;100060.00;;;15.60
63220;BMP180;49320;52.512;13.448;2023-04-15T01:24:36;100056.00;;;15.60
63220;BMP180;49320;52.512;13.448;2023-04-15T01:27:04;100058.00;;;15.60
63220;BMP180;49320;52.512;13.448;2023-04-15T01:29:36;100057.00;;;15.60
63220;BMP180;49320;52.512;13.448;2023-04-15T01:32:03;100054.00;;;15.60
63220;BMP180;49320;52.512;13.448;2023-04-15T01:34:31;100061.00;;;15.60
63220;BMP180;49320;52.512;13.448;2023-04-15T01:37:01;100049.00;;;15.60
63220;BMP180;49320;52.512;13.448;2023-04-15T01:39:27;100049.00;;;15.60
63220;BMP180;49320;52.512;13.448;2023-04-15T01:41:54;100049.00;;;15.70
63220;BMP180;49320;52.512;13.448;2023-04-15T01:44:21;100055.00;;;15.70
63220;BMP180;49320;52.512;13.448;2023-04-15T01:46:48;100050.00;;;15.70
63220;BMP180;49320;52.512;13.448;2023-04-15T01:49:15;100056.00;;;15.70
63220;BMP180;49320;52.512;13.448;2023-04-15T01:51:42;100053.00;;;15.60
63220;BMP180;49320;52.512;13.448;2023-04-15T01:54:10;100052.00;;;15.60
63220;BMP180;49320;52.512;13.448;2023-04-15T01:56:37;100050.00;;;15.60
63220;BMP180;49320;52.512;13.448;2023-04-15T01:59:04;100044.00;;;15.60
63220;BMP180;49320;52.512;13.448;2023-04-15T02:01:31;100042.00;;;15.70
63220;BMP180;49320;52.512;13.448;2023-04-15T02:03:58;100042.00;;;15.70
63220;BMP180;49320;52.512;13.448;2023-04-15T02:06:25;100045.00;;;15.70
63220;BMP180;49320;52.512;13.448;2023-04-15T02:08:54;100050.00;;;15.70
63220;BMP180;49320;52.512;13.448;2023-04-15T02:11:20;100040.00;;;15.70
63220;BMP180;49320;52.512;13.448;2023-04-15T02:13:48;100040.00;;;15.70
63220;BMP180;49320;52.512;13.448;2023-04-15T02:16:18;100046.00;;;15.70
63220;BMP180;49320;52.512;13.448;2023-04-15T02:18:46;100043.00;;;15.70
63220;BMP180;49320;52.512;13.448;2023-04-15T02:21:13;100037.00;;;15.70
63220;BMP180;49320;52.512;13.448;2023-04-15T02:23:40;100041.00;;;15.70
63220;BMP180;49320;52.512;13.448;2023-04-15T02:26:07;100041.00;;;15.70
63220;BMP180;49320;52.512;13.448;2023-04-15T02:28:34;100034.00;;;15.70
63220;BMP180;49320;52.512;13.448;2023-04-15T02:31:05;100040.00;;;15.70
63220;BMP180;49320;52.512;13.448;2023-04-15T02:33:32;100047.00;;;15.70
63220;BMP180;49320;52.512;13.448;2023-04-15T02:35:59;100043.00;;;15.70
63220;BMP180;49320;52.512;13.448;2023-04-15T02:38:26;100049.00;;;15.60
63220;BMP180;49320;52.512;13.448;2023-04-15T02:40:53;100034.00;;;15.60
63220;BMP180;49320;52.512;13.448;2023-04-15T02:43:20;100046.00;;;15.70
63220;BMP180;49320;52.512;13.448;2023-04-15T02:45:47;100041.00;;;15.70
63220;BMP180;49320;52.512;13.448;2023-04-15T02:48:14;100039.00;;;15.70
63220;BMP180;49320;52.512;13.448;2023-04-15T02:50:45;100046.00;;;15.70
63220;BMP180;49320;52.512;13.448;2023-04-15T02:53:12;100051.00;;;15.70
63220;BMP180;49320;52.512;13.448;2023-04-15T02:55:40;100053.00;;;15.70
63220;BMP180;49320;52.512;13.448;2023-04-15T02:58:08;100039.00;;;15.70
63220;BMP180;49320;52.512;13.448;2023-04-15T03:00:35;100049.00;;;15.80
63220;BMP180;49320;52.512;13.448;2023-04-15T03:03:04;100058.00;;;15.70
63220;BMP180;49320;52.512;13.448;2023-04-15T03:05:31;100055.00;;;15.80
63220;BMP180;49320;52.512;13.448;2023-04-15T03:07:58;100056.00;;;15.80
63220;BMP180;49320;52.512;13.448;2023-04-15T03:10:26;100051.00;;;15.80
63220;BMP180;49320;52.512;13.448;2023-04-15T03:12:54;100056.00;;;15.80
63220;BMP180;49320;52.512;13.448;2023-04-15T03:15:21;100055.00;;;15.80
63220;BMP180;49320;52.512;13.448;2023-04-15T03:17:48;100056.00;;;15.80
63220;BMP180;49320;52.512;13.448;2023-04-15T03:20:15;100050.00;;;15.80
63220;BMP180;49320;52.512;13.448;2023-04-15T03:22:42;100053.00;;;15.90
63220;BMP180;49320;52.512;13.448;2023-04-15T03:25:09;100056.00;;;15.90
63220;BMP180;49320;52.512;13.448;2023-04-15T03:27:37;100067.00;;;15.90
63220;BMP180;49320;52.512;13.448;2023-04-15T03:30:05;100052.00;;;15.90
63220;BMP180;49320;52.512;13.448;2023-04-15T03:32:33;100069.00;;;15.90
63220;BMP180;49320;52.512;13.448;2023-04-15T03:35:00;100061.00;;;15.90
63220;BMP180;49320;52.512;13.448;2023-04-15T03:37:26;100058.00;;;15.90
63220;BMP180;49320;52.512;13.448;2023-04-15T03:39:53;100058.00;;;15.90
63220;BMP180;49320;52.512;13.448;2023-04-15T03:42:20;100058.00;;;15.90
63220;BMP180;49320;52.512;13.448;2023-04-15T03:44:47;100064.00;;;15.90
63220;BMP180;49320;52.512;13.448;2023-04-15T03:47:14;100053.00;;;16.00
63220;BMP180;49320;52.512;13.448;2023-04-15T03:49:41;100051.00;;;16.00
63220;BMP180;49320;52.512;13.448;2023-04-15T03:52:07;100054.00;;;16.00
63220;BMP180;49320;52.512;13.448;2023-04-15T03:54:34;100055.00;;;16.00
63220;BMP180;49320;52.512;13.448;2023-04-15T03:57:01;100052.00;;;16.00
63220;BMP180;49320;52.512;13.448;2023-04-15T03:59:29;100054.00;;;16.00
63220;BMP180;49320;52.512;13.448;2023-04-15T04:01:55;100049.00;;;16.00
63220;BMP180;49320;52.512;13.448;2023-04-15T04:04:22;100055.00;;;16.00
63220;BMP180;49320;52.512;13.448;2023-04-15T04:06:50;100051.00;;;16.00
63220;BMP180;49320;52.512;13.448;2023-04-15T04:09:17;100066.00;;;16.10
63220;BMP180;49320;52.512;13.448;2023-04-15T04:11:43;100060.00;;;16.10
63220;BMP180;49320;52.512;13.448;2023-04-15T04:14:11;100073.00;;;16.10
63220;BMP180;49320;52.512;13.448;2023-04-15T04:16:38;100063.00;;;16.20
63220;BMP180;49320;52.512;13.448;2023-04-15T04:19:04;100073.00;;;16.20
63220;BMP180;49320;52.512;13.448;2023-04-15T04:21:32;100062.00;;;16.20
63220;BMP180;49320;52.512;13.448;2023-04-15T04:23:59;100062.00;;;16.20
63220;BMP180;49320;52.512;13.448;2023-04-15T04:26:26;100079.00;;;16.20
63220;BMP180;49320;52.512;13.448;2023-04-15T04:28:53;100074.00;;;16.20
63220;BMP180;49320;52.512;13.448;2023-04-15T04:31:20;100064.00;;;16.20
63220;BMP180;49320;52.512;13.448;2023-04-15T04:33:46;100078.00;;;16.30
63220;BMP180;49320;52.512;13.448;2023-04-15T04:36:13;100070.00;;;16.30
63220;BMP180;49320;52.512;13.448;2023-04-15T04:38:40;100074.00;;;16.30
63220;BMP180;49320;52.512;13.448;2023-04-15T04:41:07;100067.00;;;16.40
63220;BMP180;49320;52.512;13.448;2023-04-15T04:43:33;100069.00;;;16.40
63220;BMP180;49320;52.512;13.448;2023-04-15T04:46:00;100078.00;;;16.40
63220;BMP180;49320;52.512;13.448;2023-04-15T04:48:28;100078.00;;;16.40
63220;BMP180;49320;52.512;13.448;2023-04-15T04:50:54;100081.00;;;16.40
63220;BMP180;49320;52.512;13.448;2023-04-15T04:53:21;100083.00;;;16.50
63220;BMP180;49320;52.512;13.448;2023-04-15T04:55:48;100086.00;;;16.50
63220;BMP180;49320;52.512;13.448;2023-04-15T04:58:15;100093.00;;;16.50
63220;BMP180;49320;52.512;13.448;2023-04-15T05:00:41;100082.00;;;16.50
63220;BMP180;49320;52.512;13.448;2023-04-15T05:03:09;100082.00;;;16.50
63220;BMP180;49320;52.512;13.448;2023-04-15T05:05:36;100101.00;;;16.50
63220;BMP180;49320;52.512;13.448;2023-04-15T05:08:05;100097.00;;;16.50
63220;BMP180;49320;52.512;13.448;2023-04-15T05:10:32;100100.00;;;16.50
63220;BMP180;49320;52.512;13.448;2023-04-15T05:13:00;100095.00;;;16.60
63220;BMP180;49320;52.512;13.448;2023-04-15T05:15:27;100098.00;;;16.60
63220;BMP180;49320;52.512;13.448;2023-04-15T05:17:54;100099.00;;;16.60
63220;BMP180;49320;52.512;13.448;2023-04-15T05:20:21;100106.00;;;16.60
63220;BMP180;49320;52.512;13.448;2023-04-15T05:22:48;100101.00;;;16.70
63220;BMP180;49320;52.512;13.448;2023-04-15T05:25:15;100100.00;;;16.70
63220;BMP180;49320;52.512;13.448;2023-04-15T05:27:43;100114.00;;;16.70
63220;BMP180;49320;52.512;13.448;2023-04-15T05:30:10;100113.00;;;16.70
63220;BMP180;49320;52.512;13.448;2023-04-15T05:32:39;100109.00;;;16.80
63220;BMP180;49320;52.512;13.448;2023-04-15T05:35:06;100115.00;;;16.80
63220;BMP180;49320;52.512;13.448;2023-04-15T05:37:34;100115.00;;;16.80
63220;BMP180;49320;52.512;13.448;2023-04-15T05:40:01;100114.00;;;16.80
63220;BMP180;49320;52.512;13.448;2023-04-15T05:42:29;100112.00;;;16.90
63220;BMP180;49320;52.512;13.448;2023-04-15T05:44:56;100111.00;;;16.90
63220;BMP180;49320;52.512;13.448;2023-04-15T05:47:23;100110.00;;;17.00
63220;BMP180;49320;52.512;13.448;2023-04-15T05:49:50;100116.00;;;17.00
63220;BMP180;49320;52.512;13.448;2023-04-15T05:52:17;100119.00;;;17.00
63220;BMP180;49320;52.512;13.448;2023-04-15T05:54:44;100118.00;;;17.00
63220;BMP180;49320;52.512;13.448;2023-04-15T05:57:11;100110.00;;;17.10
63220;BMP180;49320;52.512;13.448;2023-04-15T05:59:38;100115.00;;;17.10
63220;BMP180;49320;52.512;13.448;2023-04-15T06:02:04;100114.00;;;17.10
63220;BMP180;49320;52.512;13.448;2023-04-15T06:04:32;100098.00;;;17.20
63220;BMP180;49320;52.512;13.448;2023-04-15T06:06:59;100109.00;;;17.20
63220;BMP180;49320;52.512;13.448;2023-04-15T06:09:27;100112.00;;;17.20
63220;BMP180;49320;52.512;13.448;2023-04-15T06:11:54;100110.00;;;17.30
63220;BMP180;49320;52.512;13.448;2023-04-15T06:14:22;100109.00;;;17.30
63220;BMP180;49320;52.512;13.448;2023-04-15T06:16:49;100116.00;;;17.30
63220;BMP180;49320;52.512;13.448;2023-04-15T06:19:16;100122.00;;;17.40
63220;BMP180;49320;52.512;13.448;2023-04-15T06:21:44;100118.00;;;17.40
63220;BMP180;49320;52.512;13.448;2023-04-15T06:24:11;100111.00;;;17.40
63220;BMP180;49320;52.512;13.448;2023-04-15T06:26:38;100114.00;;;17.40
63220;BMP180;49320;52.512;13.448;2023-04-15T06:29:05;100109.00;;;17.50
63220;BMP180;49320;52.512;13.448;2023-04-15T06:31:32;100123.00;;;17.50
63220;BMP180;49320;52.512;13.448;2023-04-15T06:33:59;100122.00;;;17.60
63220;BMP180;49320;52.512;13.448;2023-04-15T06:36:26;100123.00;;;17.60
63220;BMP180;49320;52.512;13.448;2023-04-15T06:38:53;100122.00;;;17.70
63220;BMP180;49320;52.512;13.448;2023-04-15T06:41:20;100128.00;;;17.70
63220;BMP180;49320;52.512;13.448;2023-04-15T06:43:47;100138.00;;;17.80
63220;BMP180;49320;52.512;13.448;2023-04-15T06:46:13;100125.00;;;17.90
63220;BMP180;49320;52.512;13.448;2023-04-15T06:48:40;100132.00;;;17.90
63220;BMP180;49320;52.512;13.448;2023-04-15T06:51:08;100132.00;;;17.90
63220;BMP180;49320;52.512;13.448;2023-04-15T06:53:34;100140.00;;;17.90
63220;BMP180;49320;52.512;13.448;2023-04-15T06:56:07;100141.00;;;18.00
63220;BMP180;49320;52.512;13.448;2023-04-15T06:58:35;100145.00;;;18.10
63220;BMP180;49320;52.512;13.448;2023-04-15T07:01:02;100151.00;;;18.10
63220;BMP180;49320;52.512;13.448;2023-04-15T07:03:30;100145.00;;;18.20
63220;BMP180;49320;52.512;13.448;2023-04-15T07:05:58;100155.00;;;18.20
63220;BMP180;49320;52.512;13.448;2023-04-15T07:08:25;100157.00;;;18.30
63220;BMP180;49320;52.512;13.448;2023-04-15T07:10:52;100166.00;;;18.30
63220;BMP180;49320;52.512;13.448;2023-04-15T07:13:19;100160.00;;;18.40
63220;BMP180;49320;52.512;13.448;2023-04-15T07:15:47;100169.00;;;18.50
63220;BMP180;49320;52.512;13.448;2023-04-15T07:18:14;100169.00;;;18.50
63220;BMP180;49320;52.512;13.448;2023-04-15T07:20:41;100162.00;;;18.50
63220;BMP180;49320;52.512;13.448;2023-04-15T07:23:08;100166.00;;;18.40
63220;BMP180;49320;52.512;13.448;2023-04-15T07:25:36;100174.00;;;18.40
63220;BMP180;49320;52.512;13.448;2023-04-15T07:28:02;100167.00;;;18.40
63220;BMP180;49320;52.512;13.448;2023-04-15T07:30:29;100175.00;;;18.40
63220;BMP180;49320;52.512;13.448;2023-04-15T07:32:58;100180.00;;;18.40
63220;BMP180;49320;52.512;13.448;2023-04-15T07:35:24;100183.00;;;18.40
63220;BMP180;49320;52.512;13.448;2023-04-15T07:37:52;100182.00;;;18.40
63220;BMP180;49320;52.512;13.448;2023-04-15T07:40:19;100193.00;;;18.40
63220;BMP180;49320;52.512;13.448;2023-04-15T07:42:46;100190.00;;;18.40
63220;BMP180;49320;52.512;13.448;2023-04-15T07:45:14;100191.00;;;18.40
63220;BMP180;49320;52.512;13.448;2023-04-15T07:47:41;100192.00;;;18.50
63220;BMP180;49320;52.512;13.448;2023-04-15T07:50:09;100189.00;;;18.40
63220;BMP180;49320;52.512;13.448;2023-04-15T07:52:36;100184.00;;;18.40
63220;BMP180;49320;52.512;13.448;2023-04-15T07:55:08;100193.00;;;18.30
63220;BMP180;49320;52.512;13.448;2023-04-15T07:57:36;100193.00;;;18.30
63220;BMP180;49320;52.512;13.448;2023-04-15T08:00:04;100196.00;;;18.30
63220;BMP180;49320;52.512;13.448;2023-04-15T08:02:31;100192.00;;;18.30
63220;BMP180;49320;52.512;13.448;2023-04-15T08:04:58;100201.00;;;18.30
63220;BMP180;49320;52.512;13.448;2023-04-15T08:07:25;100200.00;;;18.20
63220;BMP180;49320;52.512;13.448;2023-04-15T08:09:53;100191.00;;;18.20
63220;BMP180;49320;52.512;13.448;2023-04-15T08:12:20;100199.00;;;18.20
63220;BMP180;49320;52.512;13.448;2023-04-15T08:14:49;100210.00;;;18.20
63220;BMP180;49320;52.512;13.448;2023-04-15T08:17:16;100198.00;;;18.10
63220;BMP180;49320;52.512;13.448;2023-04-15T08:19:43;100202.00;;;18.10
63220;BMP180;49320;52.512;13.448;2023-04-15T08:22:09;100202.00;;;18.00
63220;BMP180;49320;52.512;13.448;2023-04-15T08:24:44;100205.00;;;18.10
63220;BMP180;49320;52.512;13.448;2023-04-15T08:27:11;100206.00;;;18.10
63220;BMP180;49320;52.512;13.448;2023-04-15T08:29:38;100211.00;;;18.10
63220;BMP180;49320;52.512;13.448;2023-04-15T08:32:06;100220.00;;;18.10
63220;BMP180;49320;52.512;13.448;2023-04-15T08:34:33;100218.00;;;18.10
63220;BMP180;49320;52.512;13.448;2023-04-15T08:37:00;100211.00;;;18.10
63220;BMP180;49320;52.512;13.448;2023-04-15T08:39:27;100207.00;;;18.10
63220;BMP180;49320;52.512;13.448;2023-04-15T08:42:01;100220.00;;;18.10
63220;BMP180;49320;52.512;13.448;2023-04-15T08:44:32;100219.00;;;18.20
63220;BMP180;49320;52.512;13.448;2023-04-15T08:47:01;100226.00;;;18.20
63220;BMP180;49320;52.512;13.448;2023-04-15T08:49:29;100225.00;;;18.20
63220;BMP180;49320;52.512;13.448;2023-04-15T08:51:58;100231.00;;;18.20
63220;BMP180;49320;52.512;13.448;2023-04-15T08:54:26;100223.00;;;18.20
63220;BMP180;49320;52.512;13.448;2023-04-15T08:56:55;100231.00;;;18.20
63220;BMP180;49320;52.512;13.448;2023-04-15T08:59:23;100228.00;;;18.20
63220;BMP180;49320;52.512;13.448;2023-04-15T09:01:50;100223.00;;;18.20
63220;BMP180;49320;52.512;13.448;2023-04-15T09:04:18;100226.00;;;18.30
63220;BMP180;49320;52.512;13.448;2023-04-15T09:06:45;100225.00;;;18.30
63220;BMP180;49320;52.512;13.448;2023-04-15T09:09:12;100227.00;;;18.30
63220;BMP180;49320;52.512;13.448;2023-04-15T09:11:40;100231.00;;;18.40
63220;BMP180;49320;52.512;13.448;2023-04-15T09:14:08;100237.00;;;18.40
63220;BMP180;49320;52.512;13.448;2023-04-15T09:17:02;100237.00;;;18.40
63220;BMP180;49320;52.512;13.448;2023-04-15T09:19:30;100235.00;;;18.40
63220;BMP180;49320;52.512;13.448;2023-04-15T09:21:59;100232.00;;;18.40
63220;BMP180;49320;52.512;13.448;2023-04-15T09:24:38;100246.00;;;18.50
63220;BMP180;49320;52.512;13.448;2023-04-15T09:27:05;100243.00;;;18.40
63220;BMP180;49320;52.512;13.448;2023-04-15T09:29:32;100246.00;;;18.50
63220;BMP180;49320;52.512;13.448;2023-04-15T09:32:10;100247.00;;;18.50
63220;BMP180;49320;52.512;13.448;2023-04-15T09:34:37;100254.00;;;18.40
63220;BMP180;49320;52.512;13.448;2023-04-15T09:37:04;100262.00;;;18.40
63220;BMP180;49320;52.512;13.448;2023-04-15T09:39:51;100261.00;;;18.50
63220;BMP180;49320;52.512;13.448;2023-04-15T09:42:18;100267.00;;;18.40
63220;BMP180;49320;52.512;13.448;2023-04-15T09:44:52;100264.00;;;18.50
63220;BMP180;49320;52.512;13.448;2023-04-15T09:47:30;100257.00;;;18.50
63220;BMP180;49320;52.512;13.448;2023-04-15T09:49:59;100269.00;;;18.50
63220;BMP180;49320;52.512;13.448;2023-04-15T09:52:27;100259.00;;;18.40
63220;BMP180;49320;52.512;13.448;2023-04-15T09:54:57;100265.00;;;18.40
63220;BMP180;49320;52.512;13.448;2023-04-15T09:57:32;100264.00;;;18.40
63220;BMP180;49320;52.512;13.448;2023-04-15T09:59:59;100268.00;;;18.40
63220;BMP180;49320;52.512;13.448;2023-04-15T10:02:27;100272.00;;;18.30
63220;BMP180;49320;52.512;13.448;2023-04-15T10:04:56;100282.00;;;18.30
63220;BMP180;49320;52.512;13.448;2023-04-15T10:07:25;100287.00;;;18.30
63220;BMP180;49320;52.512;13.448;2023-04-15T10:09:52;100282.00;;;18.30
63220;BMP180;49320;52.512;13.448;2023-04-15T10:12:20;100285.00;;;18.20
63220;BMP180;49320;52.512;13.448;2023-04-15T10:14:57;100292.00;;;18.30
63220;BMP180;49320;52.512;13.448;2023-04-15T10:17:27;100279.00;;;18.20
63220;BMP180;49320;52.512;13.448;2023-04-15T10:20:00;100286.00;;;18.20
63220;BMP180;49320;52.512;13.448;2023-04-15T10:22:28;100296.00;;;18.20
63220;BMP180;49320;52.512;13.448;2023-04-15T10:24:55;100292.00;;;18.20
63220;BMP180;49320;52.512;13.448;2023-04-15T10:27:23;100291.00;;;18.20
63220;BMP180;49320;52.512;13.448;2023-04-15T10:29:50;100283.00;;;18.20
63220;BMP180;49320;52.512;13.448;2023-04-15T10:32:20;100291.00;;;18.20
63220;BMP180;49320;52.512;13.448;2023-04-15T10:34:48;100291.00;;;18.20
63220;BMP180;49320;52.512;13.448;2023-04-15T10:37:22;100301.00;;;18.20
63220;BMP180;49320;52.512;13.448;2023-04-15T10:39:49;100294.00;;;18.30
63220;BMP180;49320;52.512;13.448;2023-04-15T10:42:18;100288.00;;;18.30
63220;BMP180;49320;52.512;13.448;2023-04-15T10:44:49;100290.00;;;18.40
63220;BMP180;49320;52.512;13.448;2023-04-15T10:47:20;100291.00;;;18.40
63220;BMP180;49320;52.512;13.448;2023-04-15T10:49:56;100298.00;;;18.40
63220;BMP180;49320;52.512;13.448;2023-04-15T10:52:27;100298.00;;;18.50
63220;BMP180;49320;52.512;13.448;2023-04-15T10:55:18;100304.00;;;18.50
63220;BMP180;49320;52.512;13.448;2023-04-15T10:57:46;100302.00;;;18.50
63220;BMP180;49320;52.512;13.448;2023-04-15T11:00:19;100307.00;;;18.50
63220;BMP180;49320;52.512;13.448;2023-04-15T11:03:08;100310.00;;;18.60
63220;BMP180;49320;52.512;13.448;2023-04-15T11:08:05;100311.00;;;18.50
63220;BMP180;49320;52.512;13.448;2023-04-15T11:13:04;100321.00;;;18.60
63220;BMP180;49320;52.512;13.448;2023-04-15T11:15:42;100332.00;;;18.60
63220;BMP180;49320;52.512;13.448;2023-04-15T11:18:26;100322.00;;;18.50
63220;BMP180;49320;52.512;13.448;2023-04-15T11:20:58;100324.00;;;18.50
63220;BMP180;49320;52.512;13.448;2023-04-15T11:23:40;100331.00;;;18.60
63220;BMP180;49320;52.512;13.448;2023-04-15T11:26:10;100332.00;;;18.50
63220;BMP180;49320;52.512;13.448;2023-04-15T11:28:43;100339.00;;;18.60
63220;BMP180;49320;52.512;13.448;2023-04-15T11:31:16;100346.00;;;18.60
63220;BMP180;49320;52.512;13.448;2023-04-15T11:33:56;100335.00;;;18.60
63220;BMP180;49320;52.512;13.448;2023-04-15T11:36:27;100345.00;;;18.60
63220;BMP180;49320;52.512;13.448;2023-04-15T11:38:57;100343.00;;;18.60
63220;BMP180;49320;52.512;13.448;2023-04-15T11:41:24;100347.00;;;18.60
63220;BMP180;49320;52.512;13.448;2023-04-15T11:43:51;100351.00;;;18.60
63220;BMP180;49320;52.512;13.448;2023-04-15T11:46:19;100352.00;;;18.60
63220;BMP180;49320;52.512;13.448;2023-04-15T11:48:47;100352.00;;;18.60
63220;BMP180;49320;52.512;13.448;2023-04-15T11:51:14;100357.00;;;18.70
63220;BMP180;49320;52.512;13.448;2023-04-15T11:53:43;100368.00;;;18.60
63220;BMP180;49320;52.512;13.448;2023-04-15T11:56:22;100363.00;;;18.60
63220;BMP180;49320;52.512;13.448;2023-04-15T11:58:57;100366.00;;;18.60
63220;BMP180;49320;52.512;13.448;2023-04-15T12:01:35;100366.00;;;18.60
63220;BMP180;49320;52.512;13.448;2023-04-15T12:04:11;100369.00;;;18.50
63220;BMP180;49320;52.512;13.448;2023-04-15T12:06:38;100370.00;;;18.50
63220;BMP180;49320;52.512;13.448;2023-04-15T12:09:12;100378.00;;;18.50
63220;BMP180;49320;52.512;13.448;2023-04-15T12:11:56;100378.00;;;18.50
63220;BMP180;49320;52.512;13.448;2023-04-15T12:14:31;100375.00;;;18.50
63220;BMP180;49320;52.512;13.448;2023-04-15T12:17:02;100379.00;;;18.50
63220;BMP180;49320;52.512;13.448;2023-04-15T12:19:40;100389.00;;;18.60
63220;BMP180;49320;52.512;13.448;2023-04-15T12:22:14;100384.00;;;18.60
63220;BMP180;49320;52.512;13.448;2023-04-15T12:24:43;100379.00;;;18.60
63220;BMP180;49320;52.512;13.448;2023-04-15T12:27:15;100386.00;;;18.60
63220;BMP180;49320;52.512;13.448;2023-04-15T12:29:42;100381.00;;;18.70
63220;BMP180;49320;52.512;13.448;2023-04-15T12:32:15;100388.00;;;18.70
63220;BMP180;49320;52.512;13.448;2023-04-15T12:34:52;100395.00;;;18.80
63220;BMP180;49320;52.512;13.448;2023-04-15T12:37:23;100390.00;;;18.80
63220;BMP180;49320;52.512;13.448;2023-04-15T12:39:52;100400.00;;;18.90
63220;BMP180;49320;52.512;13.448;2023-04-15T12:42:19;100400.00;;;18.90
63220;BMP180;49320;52.512;13.448;2023-04-15T12:44:48;100401.00;;;19.00
63220;BMP180;49320;52.512;13.448;2023-04-15T12:47:15;100397.00;;;19.00
63220;BMP180;49320;52.512;13.448;2023-04-15T12:49:42;100397.00;;;19.00
63220;BMP180;49320;52.512;13.448;2023-04-15T12:52:09;100410.00;;;19.10
63220;BMP180;49320;52.512;13.448;2023-04-15T12:54:36;100404.00;;;19.10
63220;BMP180;49320;52.512;13.448;2023-04-15T12:57:03;100413.00;;;19.10
63220;BMP180;49320;52.512;13.448;2023-04-15T12:59:34;100417.00;;;19.20
63220;BMP180;49320;52.512;13.448;2023-04-15T13:02:01;100417.00;;;19.20
63220;BMP180;49320;52.512;13.448;2023-04-15T13:04:28;100412.00;;;19.20
63220;BMP180;49320;52.512;13.448;2023-04-15T13:06:59;100412.00;;;19.20
63220;BMP180;49320;52.512;13.448;2023-04-15T13:09:26;100417.00;;;19.10
63220;BMP180;49320;52.512;13.448;2023-04-15T13:11:53;100415.00;;;19.10
63220;BMP180;49320;52.512;13.448;2023-04-15T13:14:20;100424.00;;;19.10
63220;BMP180;49320;52.512;13.448;2023-04-15T13:16:47;100433.00;;;19.10
63220;BMP180;49320;52.512;13.448;2023-04-15T13:19:14;100431.00;;;19.10
63220;BMP180;49320;52.512;13.448;2023-04-15T13:21:41;100425.00;;;19.00
63220;BMP180;49320;52.512;13.448;2023-04-15T13:24:08;100426.00;;;19.00
63220;BMP180;49320;52.512;13.448;2023-04-15T13:26:35;100434.00;;;19.00
63220;BMP180;49320;52.512;13.448;2023-04-15T13:29:02;100431.00;;;19.00
63220;BMP180;49320;52.512;13.448;2023-04-15T13:31:29;100433.00;;;19.00
63220;BMP180;49320;52.512;13.448;2023-04-15T13:33:56;100439.00;;;19.10
63220;BMP180;49320;52.512;13.448;2023-04-15T13:36:23;100438.00;;;19.10
63220;BMP180;49320;52.512;13.448;2023-04-15T13:38:50;100443.00;;;19.20
63220;BMP180;49320;52.512;13.448;2023-04-15T13:41:17;100439.00;;;19.20
63220;BMP180;49320;52.512;13.448;2023-04-15T13:43:44;100445.00;;;19.20
63220;BMP180;49320;52.512;13.448;2023-04-15T13:46:11;100444.00;;;19.20
63220;BMP180;49320;52.512;13.448;2023-04-15T13:48:38;100444.00;;;19.10
63220;BMP180;49320;52.512;13.448;2023-04-15T13:51:06;100448.00;;;19.10
63220;BMP180;49320;52.512;13.448;2023-04-15T13:53:33;100457.00;;;19.10
63220;BMP180;49320;52.512;13.448;2023-04-15T13:56:06;100451.00;;;19.00